createdAt,value
2018-03-14T00:01:31.071Z,6.40
2018-03-14T00:03:59.421Z,5.90
2018-03-14T00:06:27.835Z,6.10
2018-03-14T00:08:56.192Z,6.10
2018-03-14T00:11:25.295Z,5.43
2018-03-14T00:13:53.693Z,6.23
2018-03-14T00:16:22.083Z,6.27
2018-03-14T00:18:50.811Z,12.90
2018-03-14T00:21:19.222Z,8.70
2018-03-14T00:23:47.618Z,8.03
2018-03-14T00:26:15.996Z,8.40
2018-03-14T00:28:44.443Z,7.53
2018-03-14T00:31:13.636Z,7.27
2018-03-14T00:33:42.775Z,5.87
2018-03-14T00:36:11.172Z,6.63
2018-03-14T00:38:39.516Z,7.60
2018-03-14T00:41:07.929Z,6.97
2018-03-14T00:43:36.386Z,7.30
2018-03-14T00:46:04.712Z,8.17
2018-03-14T00:48:33.905Z,7.63
2018-03-14T00:51:02.271Z,8.10
2018-03-14T00:53:30.629Z,8.10
2018-03-14T00:55:59.138Z,7.87
2018-03-14T00:58:27.551Z,9.80
2018-03-14T01:00:55.888Z,9.77
2018-03-14T01:03:24.968Z,8.53
2018-03-14T01:05:53.320Z,8.27
2018-03-14T01:08:21.706Z,7.97
2018-03-14T01:10:50.135Z,9.73
2018-03-14T01:13:18.552Z,11.87
2018-03-14T01:15:47.759Z,8.70
2018-03-14T01:18:16.185Z,6.33
2018-03-14T01:20:44.606Z,7.80
2018-03-14T01:23:12.945Z,6.40
2018-03-14T01:25:41.331Z,6.83
2018-03-14T01:28:09.642Z,7.50
2018-03-14T01:30:38.807Z,6.40
2018-03-14T01:33:07.193Z,8.83
2018-03-14T01:35:35.601Z,7.23
2018-03-14T01:38:04.101Z,7.33
2018-03-14T01:40:32.451Z,6.57
2018-03-14T01:43:00.789Z,8.90
2018-03-14T01:45:29.126Z,7.43
2018-03-14T01:47:57.521Z,6.00
2018-03-14T01:50:25.851Z,7.60
2018-03-14T01:53:05.967Z,6.50
2018-03-14T01:55:34.356Z,7.40
2018-03-14T01:58:03.415Z,7.03
2018-03-14T02:00:31.771Z,8.70
2018-03-14T02:03:00.123Z,8.00
2018-03-14T02:05:28.618Z,7.77
2018-03-14T02:07:57.724Z,8.13
2018-03-14T02:10:26.072Z,9.60
2018-03-14T02:12:54.428Z,7.47
2018-03-14T02:15:22.791Z,6.90
2018-03-14T02:17:51.229Z,6.80
2018-03-14T02:20:20.336Z,5.43
2018-03-14T02:22:48.852Z,5.60
2018-03-14T02:25:17.343Z,4.33
2018-03-14T02:27:45.738Z,3.17
2018-03-14T02:30:14.074Z,1.93
2018-03-14T02:32:42.422Z,3.50
2018-03-14T02:35:10.955Z,3.03
2018-03-14T02:37:39.310Z,2.83
2018-03-14T02:40:07.700Z,2.63
2018-03-14T02:42:36.046Z,2.60
2018-03-14T02:45:05.290Z,2.57
2018-03-14T02:47:34.381Z,2.70
2018-03-14T02:50:02.756Z,2.93
2018-03-14T02:52:31.084Z,2.30
2018-03-14T02:54:59.377Z,4.40
2018-03-14T02:57:27.699Z,1.90
2018-03-14T02:59:55.992Z,1.80
2018-03-14T03:02:24.382Z,2.00
2018-03-14T03:04:52.784Z,2.33
2018-03-14T03:07:21.174Z,1.37
2018-03-14T03:09:49.523Z,1.60
2018-03-14T03:12:17.902Z,1.23
2018-03-14T03:14:46.300Z,1.70
2018-03-14T03:17:14.712Z,1.23
2018-03-14T03:19:43.096Z,1.40
2018-03-14T03:22:11.422Z,1.00
2018-03-14T03:24:39.784Z,1.10
2018-03-14T03:27:08.161Z,0.97
2018-03-14T03:29:37.511Z,1.10
2018-03-14T03:32:06.610Z,1.83
2018-03-14T03:34:34.946Z,2.00
2018-03-14T03:37:03.281Z,3.30
2018-03-14T03:39:31.675Z,4.93
2018-03-14T03:41:59.995Z,1.80
2018-03-14T03:44:28.308Z,1.43
2018-03-14T03:46:56.630Z,1.30
2018-03-14T03:49:24.984Z,1.40
2018-03-14T03:51:53.395Z,1.43
2018-03-14T03:54:22.561Z,1.63
2018-03-14T03:56:50.979Z,1.30
2018-03-14T03:59:19.419Z,1.83
2018-03-14T04:01:47.858Z,2.10
2018-03-14T04:04:16.283Z,2.77
2018-03-14T04:06:45.427Z,2.70
2018-03-14T04:09:14.677Z,2.83
2018-03-14T04:11:43.016Z,3.40
2018-03-14T04:14:11.343Z,4.43
2018-03-14T04:16:39.680Z,6.00
2018-03-14T04:19:08.849Z,7.00
2018-03-14T04:21:37.329Z,7.80
2018-03-14T04:24:05.684Z,6.83
2018-03-14T04:26:34.798Z,7.87
2018-03-14T04:29:04.107Z,8.60
2018-03-14T04:31:33.205Z,9.83
2018-03-14T04:34:02.437Z,9.03
2018-03-14T04:36:30.723Z,9.83
2018-03-14T04:38:59.048Z,8.60
2018-03-14T04:41:27.367Z,9.27
2018-03-14T04:43:55.708Z,10.00
2018-03-14T04:46:24.106Z,10.10
2018-03-14T04:48:52.456Z,9.33
2018-03-14T04:51:20.850Z,10.13
2018-03-14T04:53:50.035Z,11.33
2018-03-14T04:56:18.458Z,10.07
2018-03-14T04:58:47.361Z,8.80
2018-03-14T05:01:15.740Z,10.03
2018-03-14T05:03:44.119Z,11.07
2018-03-14T05:06:12.455Z,10.57
2018-03-14T05:08:40.852Z,12.43
2018-03-14T05:11:09.265Z,11.90
2018-03-14T05:13:37.638Z,11.37
2018-03-14T05:16:06.003Z,12.17
2018-03-14T05:18:35.096Z,10.70
2018-03-14T05:21:03.442Z,11.47
2018-03-14T05:23:31.787Z,12.67
2018-03-14T05:26:00.109Z,11.67
2018-03-14T05:28:28.589Z,11.73
2018-03-14T05:30:58.084Z,13.53
2018-03-14T05:33:27.237Z,12.93
2018-03-14T05:35:55.645Z,11.57
2018-03-14T05:38:24.039Z,13.63
2018-03-14T05:40:52.374Z,12.83
2018-03-14T05:43:20.720Z,13.10
2018-03-14T05:45:49.088Z,10.77
2018-03-14T05:48:17.509Z,13.40
2018-03-14T05:50:45.956Z,11.90
2018-03-14T05:53:14.303Z,11.23
2018-03-14T05:55:42.649Z,11.90
2018-03-14T05:58:11.000Z,9.93
2018-03-14T06:00:39.355Z,12.60
2018-03-14T06:03:07.780Z,10.43
2018-03-14T06:05:36.134Z,10.10
2018-03-14T06:08:04.530Z,10.60
2018-03-14T06:10:32.856Z,11.13
2018-03-14T06:13:01.204Z,9.50
2018-03-14T06:15:29.535Z,10.07
2018-03-14T06:17:57.915Z,10.43
2018-03-14T06:20:26.251Z,9.33
2018-03-14T06:22:54.634Z,8.20
2018-03-14T06:25:23.082Z,9.57
2018-03-14T06:27:51.521Z,10.73
2018-03-14T06:30:20.706Z,11.20
2018-03-14T06:32:49.115Z,10.50
2018-03-14T06:35:17.547Z,10.87
2018-03-14T06:37:45.972Z,11.97
2018-03-14T06:40:15.221Z,13.30
2018-03-14T06:42:43.680Z,31.67
2018-03-14T06:45:12.058Z,12.53
2018-03-14T06:47:40.459Z,13.50
2018-03-14T06:50:08.883Z,15.17
2018-03-14T06:52:37.358Z,14.20
2018-03-14T06:55:05.761Z,15.53
2018-03-14T06:57:34.092Z,12.70
2018-03-14T07:00:14.172Z,13.63
2018-03-14T07:02:48.594Z,12.40
2018-03-14T07:05:28.677Z,12.97
2018-03-14T07:07:57.028Z,12.90
2018-03-14T07:10:26.175Z,14.23
2018-03-14T07:12:54.536Z,12.83
2018-03-14T07:15:22.937Z,15.80
2018-03-14T07:17:52.162Z,15.80
2018-03-14T07:20:21.273Z,16.03
2018-03-14T07:22:49.680Z,15.60
2018-03-14T07:25:18.131Z,14.33
2018-03-14T07:27:46.612Z,15.00
2018-03-14T07:30:15.146Z,14.53
2018-03-14T07:32:43.491Z,18.50
2018-03-14T07:35:12.643Z,17.33
2018-03-14T07:37:41.310Z,15.80
2018-03-14T07:40:09.784Z,16.30
2018-03-14T07:42:38.148Z,16.60
2018-03-14T07:45:06.487Z,15.60
2018-03-14T07:47:35.602Z,16.03
2018-03-14T07:50:03.931Z,14.87
2018-03-14T07:52:32.382Z,16.90
2018-03-14T07:55:00.752Z,19.23
2018-03-14T07:57:29.135Z,17.53
2018-03-14T07:59:57.467Z,16.77
2018-03-14T08:02:26.585Z,17.97
2018-03-14T08:04:55.681Z,15.63
2018-03-14T08:07:24.032Z,15.73
2018-03-14T08:09:52.439Z,16.83
2018-03-14T08:12:20.840Z,16.50
2018-03-14T08:14:49.215Z,15.47
2018-03-14T08:17:17.655Z,15.10
2018-03-14T08:19:46.802Z,13.93
2018-03-14T08:22:15.404Z,14.90
2018-03-14T08:24:44.596Z,15.10
2018-03-14T08:27:13.030Z,14.80
2018-03-14T08:29:41.392Z,16.60
2018-03-14T08:32:09.801Z,18.67
2018-03-14T08:34:38.194Z,15.03
2018-03-14T08:37:06.567Z,14.10
2018-03-14T08:39:34.982Z,13.70
2018-03-14T08:42:03.322Z,16.77
2018-03-14T08:44:32.434Z,13.97
2018-03-14T08:47:01.526Z,12.73
2018-03-14T08:49:30.630Z,12.70
2018-03-14T08:51:59.122Z,13.60
2018-03-14T08:54:27.468Z,15.20
2018-03-14T08:56:55.830Z,13.17
2018-03-14T08:59:24.923Z,13.80
2018-03-14T09:01:54.031Z,13.57
2018-03-14T09:04:23.221Z,12.60
2018-03-14T09:06:51.579Z,13.67
2018-03-14T09:09:20.863Z,14.80
2018-03-14T09:11:49.302Z,11.90
2018-03-14T09:14:17.771Z,14.60
2018-03-14T09:16:47.077Z,14.00
2018-03-14T09:19:15.535Z,13.60
2018-03-14T09:21:45.542Z,11.70
2018-03-14T09:24:13.920Z,15.10
2018-03-14T09:26:42.259Z,14.63
2018-03-14T09:29:11.438Z,15.07
2018-03-14T09:31:39.836Z,13.50
2018-03-14T09:34:08.313Z,12.87
2018-03-14T09:36:36.775Z,12.80
2018-03-14T09:39:05.122Z,12.80
2018-03-14T09:41:33.529Z,11.80
2018-03-14T09:44:01.878Z,12.43
2018-03-14T09:46:30.212Z,11.87
2018-03-14T09:48:59.319Z,13.10
2018-03-14T09:51:27.730Z,11.60
2018-03-14T09:53:57.213Z,10.73
2018-03-14T09:56:26.578Z,10.97
2018-03-14T09:58:55.839Z,10.87
2018-03-14T10:01:24.514Z,10.70
2018-03-14T10:03:53.316Z,10.80
2018-03-14T10:06:22.503Z,10.60
2018-03-14T10:08:51.951Z,12.00
2018-03-14T10:11:20.411Z,12.30
2018-03-14T10:13:49.158Z,12.73
2018-03-14T10:16:17.620Z,14.53
2018-03-14T10:18:46.118Z,13.93
2018-03-14T10:21:14.495Z,13.50
2018-03-14T10:23:43.755Z,11.87
2018-03-14T10:26:12.132Z,12.97
2018-03-14T10:28:40.537Z,12.53
2018-03-14T10:31:08.928Z,12.07
2018-03-14T10:33:37.307Z,10.70
2018-03-14T10:36:05.651Z,12.50
2018-03-14T10:38:33.988Z,9.70
2018-03-14T10:41:02.385Z,9.77
2018-03-14T10:43:30.802Z,12.80
2018-03-14T10:45:59.122Z,9.57
2018-03-14T10:48:27.445Z,9.90
2018-03-14T10:50:55.789Z,8.90
2018-03-14T10:53:24.892Z,12.37
2018-03-14T10:55:54.102Z,9.80
2018-03-14T10:58:23.268Z,10.93
2018-03-14T11:00:56.643Z,10.17
2018-03-14T11:03:31.406Z,11.13
2018-03-14T11:05:59.863Z,10.37
2018-03-14T11:08:29.182Z,12.07
2018-03-14T11:10:58.336Z,10.23
2018-03-14T11:13:26.662Z,11.40
2018-03-14T11:15:54.997Z,13.90
2018-03-14T11:18:23.539Z,13.20
2018-03-14T11:20:51.947Z,11.20
2018-03-14T11:23:20.374Z,10.63
2018-03-14T11:25:48.886Z,9.70
2018-03-14T11:28:17.291Z,9.60
2018-03-14T11:30:45.979Z,11.40
2018-03-14T11:33:14.609Z,10.27
2018-03-14T11:35:42.966Z,10.20
2018-03-14T11:38:11.323Z,8.90
2018-03-14T11:40:40.438Z,8.93
2018-03-14T11:43:08.857Z,8.63
2018-03-14T11:45:37.264Z,8.73
2018-03-14T11:48:05.584Z,9.13
2018-03-14T11:50:33.954Z,8.50
2018-03-14T11:53:02.290Z,9.47
2018-03-14T11:55:31.464Z,9.60
2018-03-14T11:57:59.794Z,9.83
2018-03-14T12:00:28.911Z,10.50
2018-03-14T12:02:57.248Z,9.67
2018-03-14T12:05:25.585Z,9.10
2018-03-14T12:07:54.749Z,10.07
2018-03-14T12:10:23.092Z,8.77
2018-03-14T12:12:51.495Z,9.80
2018-03-14T12:15:19.928Z,8.73
2018-03-14T12:17:48.327Z,8.27
2018-03-14T12:20:16.827Z,8.00
2018-03-14T12:22:45.280Z,9.45
2018-03-14T12:25:13.622Z,7.93
2018-03-14T12:27:41.994Z,8.47
2018-03-14T12:30:10.338Z,4.60
2018-03-14T12:32:38.746Z,6.28
2018-03-14T12:35:07.081Z,6.97
2018-03-14T12:37:35.423Z,7.17
2018-03-14T12:40:03.777Z,7.00
2018-03-14T12:42:32.887Z,8.00
2018-03-14T12:45:02.057Z,6.80
2018-03-14T12:47:30.380Z,6.80
2018-03-14T12:49:58.842Z,6.57
2018-03-14T12:52:27.437Z,6.00
2018-03-14T12:54:55.772Z,6.87
2018-03-14T12:57:24.218Z,7.73
2018-03-14T12:59:52.608Z,7.00
2018-03-14T13:02:21.016Z,6.70
2018-03-14T13:04:49.395Z,6.10
2018-03-14T13:07:17.855Z,6.17
2018-03-14T13:09:46.307Z,5.27
2018-03-14T13:12:14.798Z,6.23
2018-03-14T13:14:43.195Z,6.77
2018-03-14T13:17:11.606Z,6.37
2018-03-14T13:19:39.984Z,6.57
2018-03-14T13:22:08.391Z,6.90
2018-03-14T13:24:36.725Z,5.97
2018-03-14T13:27:05.062Z,5.83
2018-03-14T13:29:33.390Z,6.70
2018-03-14T13:32:01.773Z,5.53
2018-03-14T13:34:30.955Z,7.30
2018-03-14T13:37:00.060Z,5.93
2018-03-14T13:39:28.459Z,4.80
2018-03-14T13:41:56.918Z,6.60
2018-03-14T13:44:25.297Z,6.20
2018-03-14T13:46:53.709Z,6.20
2018-03-14T13:49:22.103Z,6.20
2018-03-14T13:51:50.676Z,6.80
2018-03-14T13:54:19.122Z,6.10
2018-03-14T13:56:47.808Z,6.00
2018-03-14T13:59:16.277Z,6.50
2018-03-14T14:01:44.923Z,5.00
2018-03-14T14:04:14.126Z,7.30
2018-03-14T14:06:42.497Z,6.53
2018-03-14T14:09:10.852Z,7.00
2018-03-14T14:11:39.163Z,6.67
2018-03-14T14:14:08.290Z,6.43
2018-03-14T14:16:36.760Z,6.10
2018-03-14T14:19:05.093Z,6.20
2018-03-14T14:21:33.426Z,6.40
2018-03-14T14:24:01.759Z,6.10
2018-03-14T14:26:30.092Z,6.40
2018-03-14T14:28:59.242Z,6.53
2018-03-14T14:31:27.575Z,4.60
2018-03-14T14:33:56.811Z,5.33
2018-03-14T14:36:26.059Z,5.53
2018-03-14T14:38:54.428Z,5.63
2018-03-14T14:41:23.057Z,5.93
2018-03-14T14:43:51.388Z,5.13
2018-03-14T14:46:20.584Z,5.30
2018-03-14T14:48:49.238Z,5.77
2018-03-14T14:51:18.612Z,4.70
2018-03-14T14:53:47.579Z,4.57
2018-03-14T14:56:16.147Z,3.60
2018-03-14T14:58:44.561Z,4.60
2018-03-14T15:01:12.992Z,4.15
2018-03-14T15:03:41.378Z,3.20
2018-03-14T15:06:09.879Z,3.43
2018-03-14T15:08:39.077Z,4.30
2018-03-14T15:11:07.454Z,3.93
2018-03-14T15:13:35.796Z,3.40
2018-03-14T15:16:04.135Z,4.10
2018-03-14T15:18:32.886Z,3.90
2018-03-14T15:21:01.207Z,3.57
2018-03-14T15:23:29.556Z,4.20
2018-03-14T15:25:58.860Z,3.50
2018-03-14T15:28:28.005Z,3.63
2018-03-14T15:30:57.203Z,3.97
2018-03-14T15:33:25.617Z,5.50
2018-03-14T15:35:54.551Z,5.73
2018-03-14T15:38:23.045Z,5.20
2018-03-14T15:40:51.544Z,5.32
2018-03-14T15:43:20.050Z,5.50
2018-03-14T15:45:49.326Z,4.90
2018-03-14T15:48:18.107Z,4.93
2018-03-14T15:50:47.444Z,5.80
2018-03-14T15:53:16.999Z,4.57
2018-03-14T15:55:46.550Z,5.13
2018-03-14T15:58:15.312Z,5.50
2018-03-14T16:00:43.704Z,4.63
2018-03-14T16:03:12.247Z,4.63
2018-03-14T16:05:40.576Z,4.72
2018-03-14T16:08:09.006Z,4.50
2018-03-14T16:10:37.415Z,4.50
2018-03-14T16:13:05.730Z,4.20
2018-03-14T16:15:34.233Z,4.03
2018-03-14T16:18:02.552Z,5.27
2018-03-14T16:20:30.892Z,4.40
2018-03-14T16:22:59.258Z,5.00
2018-03-14T16:25:27.745Z,5.17
2018-03-14T16:27:56.940Z,5.10
2018-03-14T16:30:25.296Z,5.17
2018-03-14T16:32:53.722Z,6.13
2018-03-14T16:35:22.390Z,5.93
2018-03-14T16:37:51.744Z,5.37
2018-03-14T16:40:20.182Z,5.47
2018-03-14T16:42:48.759Z,4.80
2018-03-14T16:45:17.224Z,5.80
2018-03-14T16:47:45.744Z,5.77
2018-03-14T16:50:14.351Z,6.10
2018-03-14T16:52:42.699Z,5.73
2018-03-14T16:55:11.079Z,5.50
2018-03-14T16:57:39.398Z,4.97
2018-03-14T17:00:07.730Z,6.60
2018-03-14T17:02:36.082Z,7.07
2018-03-14T17:05:04.423Z,6.97
2018-03-14T17:07:32.843Z,7.47
2018-03-14T17:10:01.188Z,6.70
2018-03-14T17:12:29.533Z,7.80
2018-03-14T17:14:57.938Z,8.70
2018-03-14T17:17:27.064Z,8.13
2018-03-14T17:19:55.516Z,10.23
2018-03-14T17:22:24.783Z,9.27
2018-03-14T17:24:53.277Z,9.10
2018-03-14T17:27:21.794Z,10.17
2018-03-14T17:29:50.199Z,10.23
2018-03-14T17:32:18.558Z,8.13
2018-03-14T17:34:47.205Z,10.30
2018-03-14T17:37:16.457Z,10.73
2018-03-14T17:39:45.028Z,11.47
2018-03-14T17:42:13.567Z,12.37
2018-03-14T17:44:42.678Z,12.70
2018-03-14T17:47:11.052Z,11.47
2018-03-14T17:49:39.417Z,13.03
2018-03-14T17:52:07.900Z,9.10
2018-03-14T17:54:36.269Z,9.20
2018-03-14T17:57:04.639Z,9.37
2018-03-14T17:59:33.008Z,8.57
2018-03-14T18:02:02.152Z,9.13
2018-03-14T18:04:30.879Z,9.70
2018-03-14T18:06:59.245Z,9.23
2018-03-14T18:09:27.812Z,11.23
2018-03-14T18:11:56.310Z,9.87
2018-03-14T18:14:24.746Z,9.50
2018-03-14T18:16:53.247Z,10.20
2018-03-14T18:19:21.633Z,10.03
2018-03-14T18:21:50.094Z,10.87
2018-03-14T18:24:18.585Z,11.47
2018-03-14T18:26:47.154Z,9.67
2018-03-14T18:29:15.719Z,10.60
2018-03-14T18:31:45.003Z,9.93
2018-03-14T18:34:14.305Z,9.37
2018-03-14T18:36:42.692Z,9.23
2018-03-14T18:39:11.045Z,9.03
2018-03-14T18:41:39.463Z,9.80
2018-03-14T18:44:08.565Z,8.87
2018-03-14T18:46:37.729Z,10.10
2018-03-14T18:49:06.168Z,10.00
2018-03-14T18:51:35.268Z,9.97
2018-03-14T18:54:04.385Z,9.13
2018-03-14T18:56:33.495Z,9.70
2018-03-14T18:59:02.652Z,9.53
2018-03-14T19:01:31.008Z,10.50
2018-03-14T19:04:00.124Z,11.13
2018-03-14T19:06:28.451Z,9.20
2018-03-14T19:08:56.805Z,10.57
2018-03-14T19:11:25.251Z,10.10
2018-03-14T19:13:53.797Z,10.23
2018-03-14T19:16:22.230Z,10.57
2018-03-14T19:18:50.669Z,11.40
2018-03-14T19:21:19.862Z,13.20
2018-03-14T19:23:49.089Z,13.80
2018-03-14T19:26:17.642Z,11.23
2018-03-14T19:28:46.201Z,11.47
2018-03-14T19:31:14.684Z,10.43
2018-03-14T19:33:43.120Z,10.37
2018-03-14T19:36:11.506Z,10.03
2018-03-14T19:38:39.948Z,11.40
2018-03-14T19:41:09.096Z,10.60
2018-03-14T19:43:37.438Z,10.97
2018-03-14T19:46:05.772Z,11.50
2018-03-14T19:48:34.203Z,11.10
2018-03-14T19:51:02.643Z,10.20
2018-03-14T19:53:31.012Z,11.37
2018-03-14T19:55:59.449Z,9.90
2018-03-14T19:58:27.770Z,11.87
2018-03-14T20:00:56.185Z,11.60
2018-03-14T20:03:24.597Z,12.10
2018-03-14T20:05:53.012Z,10.60
2018-03-14T20:08:21.501Z,10.70
2018-03-14T20:10:50.035Z,11.30
2018-03-14T20:13:18.855Z,10.80
2018-03-14T20:15:47.410Z,11.83
2018-03-14T20:18:15.856Z,10.07
2018-03-14T20:20:44.238Z,11.00
2018-03-14T20:23:12.581Z,11.60
2018-03-14T20:25:41.082Z,11.53
2018-03-14T20:28:09.497Z,12.70
2018-03-14T20:30:37.864Z,12.70
2018-03-14T20:33:06.280Z,12.77
2018-03-14T20:35:34.671Z,11.53
2018-03-14T20:38:03.073Z,10.87
2018-03-14T20:40:31.420Z,12.53
2018-03-14T20:42:59.745Z,12.37
2018-03-14T20:45:28.087Z,12.53
2018-03-14T20:47:56.517Z,14.13
2018-03-14T20:50:24.915Z,13.37
2018-03-14T20:52:53.368Z,14.90
2018-03-14T20:55:21.750Z,24.83
2018-03-14T20:57:51.015Z,14.13
2018-03-14T21:00:19.460Z,14.57
2018-03-14T21:02:47.950Z,14.73
2018-03-14T21:05:16.399Z,15.93
2018-03-14T21:07:45.760Z,17.00
2018-03-14T21:10:14.154Z,15.60
2018-03-14T21:12:42.515Z,16.00
2018-03-14T21:15:10.932Z,17.97
2018-03-14T21:17:40.099Z,15.83
2018-03-14T21:20:08.455Z,16.00
2018-03-14T21:22:36.796Z,17.53
2018-03-14T21:25:05.135Z,17.67
2018-03-14T21:27:33.471Z,19.37
2018-03-14T21:30:01.897Z,18.43
2018-03-14T21:32:31.046Z,21.67
2018-03-14T21:34:59.374Z,21.47
2018-03-14T21:37:27.716Z,20.10
2018-03-14T21:39:56.060Z,19.87
2018-03-14T21:42:24.422Z,20.90
2018-03-14T21:44:52.851Z,21.27
2018-03-14T21:47:22.001Z,21.93
2018-03-14T21:49:50.448Z,21.87
2018-03-14T21:52:18.796Z,21.50
2018-03-14T21:54:47.985Z,23.30
2018-03-14T21:57:18.231Z,23.60
2018-03-14T21:59:46.633Z,21.67
2018-03-14T22:02:15.224Z,22.80
2018-03-14T22:04:43.615Z,22.90
2018-03-14T22:07:11.968Z,22.80
2018-03-14T22:09:40.289Z,22.23
2018-03-14T22:12:08.642Z,19.50
2018-03-14T22:14:37.035Z,20.93
2018-03-14T22:17:05.371Z,20.63
2018-03-14T22:19:33.699Z,20.80
2018-03-14T22:22:02.057Z,21.83
2018-03-14T22:24:30.454Z,19.73
2018-03-14T22:26:58.857Z,21.80
2018-03-14T22:29:27.189Z,19.67
2018-03-14T22:31:55.523Z,19.40
2018-03-14T22:34:23.857Z,19.67
2018-03-14T22:36:52.239Z,20.17
2018-03-14T22:39:20.669Z,19.10
2018-03-14T22:41:49.116Z,19.80
2018-03-14T22:44:17.528Z,18.27
2018-03-14T22:46:45.899Z,19.80
2018-03-14T22:49:14.280Z,20.20
2018-03-14T22:51:42.695Z,21.10
2018-03-14T22:54:11.103Z,20.53
2018-03-14T22:56:39.439Z,18.40
2018-03-14T22:59:07.764Z,20.10
2018-03-14T23:01:36.096Z,21.13
2018-03-14T23:04:05.216Z,19.77
2018-03-14T23:06:34.310Z,17.73
2018-03-14T23:09:03.564Z,17.40
2018-03-14T23:11:31.909Z,18.20
2018-03-14T23:14:06.142Z,19.30
2018-03-14T23:16:35.237Z,18.17
2018-03-14T23:19:03.563Z,20.10
2018-03-14T23:21:31.983Z,19.17
2018-03-14T23:24:00.317Z,18.30
2018-03-14T23:26:28.704Z,18.50
2018-03-14T23:28:57.067Z,17.33
2018-03-14T23:31:25.492Z,16.10
2018-03-14T23:33:53.835Z,18.23
2018-03-14T23:36:22.213Z,15.20
2018-03-14T23:38:50.689Z,17.10
2018-03-14T23:41:19.803Z,17.87
2018-03-14T23:43:48.201Z,16.77
2018-03-14T23:46:16.710Z,16.63
2018-03-14T23:48:45.175Z,17.40
2018-03-14T23:51:13.704Z,16.23
2018-03-14T23:53:42.142Z,15.80
2018-03-14T23:56:10.470Z,15.67
2018-03-14T23:58:38.831Z,14.80
